Time;durP1;ratioP1;P1;durP2;ratioP2;P2;SDS_P1;SDS_P2;PMS_P1;PMS_P2;Temp;Humidity;BMP_temperature;BMP_pressure;BME280_temperature;BME280_humidity;BME280_pressure;Samples;Min_cycle;Max_cycle;Signal;HPM_P1;HPM_P2
2023/10/19 00:00:33;;;;;;;15.23;9.63;;;8.90;99.90;;;;;;5015411;28;20426;-65
2023/10/19 00:03:02;;;;;;;13.50;10.13;;;8.90;99.90;;;;;;5014818;28;20450;-65
2023/10/19 00:05:32;;;;;;;17.70;9.53;;;8.90;99.90;;;;;;5015307;28;20500;-62
2023/10/19 00:07:59;;;;;;;11.43;8.20;;;8.80;99.90;;;;;;5015412;28;20453;-66
2023/10/19 00:10:33;;;;;;;12.93;8.73;;;8.80;99.90;;;;;;5015009;28;20446;-65
2023/10/19 00:13:05;;;;;;;18.73;10.00;;;8.80;99.90;;;;;;5015336;28;20449;-61
2023/10/19 00:15:34;;;;;;;12.57;8.60;;;8.80;99.90;;;;;;5015751;28;20505;-65
2023/10/19 00:18:08;;;;;;;26.00;11.53;;;8.80;99.90;;;;;;5015873;28;20490;-63
2023/10/19 00:20:50;;;;;;;14.33;8.17;;;8.80;99.90;;;;;;5016963;28;20442;-64
2023/10/19 00:23:18;;;;;;;14.70;8.87;;;8.80;99.90;;;;;;5016786;28;20434;-64
2023/10/19 00:25:50;;;;;;;16.37;8.40;;;8.80;99.90;;;;;;5017048;28;20450;-63
2023/10/19 00:28:22;;;;;;;14.60;8.30;;;8.80;99.90;;;;;;5017426;28;20440;-63
2023/10/19 00:30:50;;;;;;;13.60;8.50;;;8.80;99.90;;;;;;5016803;28;20477;-64
2023/10/19 00:33:18;;;;;;;15.33;8.23;;;8.80;99.90;;;;;;5017080;28;20442;-64
2023/10/19 00:35:50;;;;;;;17.03;8.77;;;8.80;99.90;;;;;;5016746;28;20460;-64
2023/10/19 00:38:27;;;;;;;18.50;9.43;;;8.80;99.90;;;;;;5016542;28;20410;-63
2023/10/19 00:40:59;;;;;;;16.63;10.20;;;8.80;99.90;;;;;;5017089;28;20482;-62
2023/10/19 00:43:32;;;;;;;15.30;7.87;;;8.80;99.90;;;;;;5016297;28;20497;-64
2023/10/19 00:46:01;;;;;;;17.83;9.73;;;8.70;99.90;;;;;;5017124;28;20470;-65
2023/10/19 00:48:32;;;;;;;16.80;8.70;;;8.70;99.90;;;;;;5016876;28;20481;-71
2023/10/19 00:51:09;;;;;;;14.00;8.20;;;8.70;99.90;;;;;;5016347;28;20430;-66
2023/10/19 00:53:39;;;;;;;14.67;9.10;;;8.70;99.90;;;;;;5016616;28;20429;-63
2023/10/19 00:56:10;;;;;;;18.33;10.00;;;8.70;99.90;;;;;;5016837;28;20450;-65
2023/10/19 00:58:41;;;;;;;16.47;8.57;;;8.70;99.90;;;;;;5016679;28;20410;-65
2023/10/19 01:01:08;;;;;;;12.70;8.50;;;8.70;99.90;;;;;;5016686;28;20434;-64
2023/10/19 01:03:39;;;;;;;14.50;9.07;;;8.70;99.90;;;;;;5017028;28;20477;-64
2023/10/19 01:06:12;;;;;;;12.53;8.57;;;8.70;99.90;;;;;;5016161;28;20489;-64
2023/10/19 01:08:42;;;;;;;12.57;8.00;;;8.80;99.90;;;;;;5016496;28;20419;-61
2023/10/19 01:11:15;;;;;;;12.17;8.60;;;8.80;99.90;;;;;;5017030;28;20454;-64
2023/10/19 01:13:44;;;;;;;16.23;8.63;;;8.70;99.90;;;;;;5016936;28;20445;-59
2023/10/19 01:16:21;;;;;;;17.10;9.30;;;8.80;99.90;;;;;;5016357;28;20510;-62
2023/10/19 01:18:53;;;;;;;13.27;8.50;;;8.70;99.90;;;;;;5016637;28;20430;-61
2023/10/19 01:21:23;;;;;;;13.90;8.60;;;8.70;99.90;;;;;;5016782;28;20426;-64
2023/10/19 01:23:51;;;;;;;14.83;9.40;;;8.70;99.90;;;;;;5015975;28;20454;-70
2023/10/19 01:26:22;;;;;;;11.80;8.43;;;8.70;99.90;;;;;;5016554;28;20461;-64
2023/10/19 01:28:50;;;;;;;18.00;8.70;;;8.70;99.90;;;;;;5016268;28;20470;-62
2023/10/19 01:31:30;;;;;;;15.23;9.27;;;8.70;99.90;;;;;;5016349;28;20438;-64
2023/10/19 01:33:59;;;;;;;14.43;8.43;;;8.70;99.90;;;;;;5016361;28;20497;-63
2023/10/19 01:36:32;;;;;;;18.10;9.50;;;8.60;99.90;;;;;;5016154;28;20442;-62
2023/10/19 01:39:00;;;;;;;14.23;9.17;;;8.60;99.90;;;;;;5016075;28;20461;-62
2023/10/19 01:41:30;;;;;;;12.27;9.03;;;8.60;99.90;;;;;;5015915;28;20425;-61
2023/10/19 01:44:04;;;;;;;19.37;10.10;;;8.60;99.90;;;;;;5016692;28;20449;-65
2023/10/19 01:46:33;;;;;;;19.63;9.33;;;8.60;99.90;;;;;;5016630;28;20457;-62
2023/10/19 01:49:02;;;;;;;16.40;10.17;;;8.70;99.90;;;;;;5016749;28;20422;-67
2023/10/19 01:51:31;;;;;;;19.33;10.17;;;8.70;99.90;;;;;;5016174;28;20474;-64
2023/10/19 01:54:00;;;;;;;17.30;9.67;;;8.70;99.90;;;;;;5016786;28;20434;-63
2023/10/19 01:56:30;;;;;;;15.80;9.87;;;8.70;99.90;;;;;;5020108;28;20470;-61
2023/10/19 01:58:57;;;;;;;18.17;9.90;;;8.70;99.90;;;;;;5020212;28;20430;-67
2023/10/19 02:01:29;;;;;;;14.93;10.00;;;8.70;99.90;;;;;;5019339;28;20426;-65
2023/10/19 02:03:59;;;;;;;16.93;9.33;;;8.60;99.90;;;;;;5019572;28;20406;-64
2023/10/19 02:06:28;;;;;;;17.90;9.60;;;8.60;99.90;;;;;;5019832;28;20462;-61
2023/10/19 02:09:00;;;;;;;17.30;10.80;;;8.60;99.90;;;;;;5019818;28;20524;-66
2023/10/19 02:11:29;;;;;;;14.57;8.97;;;8.60;99.90;;;;;;5019960;28;20422;-63
2023/10/19 02:13:59;;;;;;;15.83;9.57;;;8.60;99.90;;;;;;5019831;28;20529;-65
2023/10/19 02:16:29;;;;;;;20.67;11.30;;;8.60;99.90;;;;;;5019492;28;20431;-67
2023/10/19 02:18:56;;;;;;;17.80;10.50;;;8.60;99.90;;;;;;5019595;28;20497;-61
2023/10/19 02:21:23;;;;;;;13.37;9.60;;;8.60;99.90;;;;;;5019821;28;20452;-64
2023/10/19 02:23:52;;;;;;;26.23;10.97;;;8.60;99.90;;;;;;5019353;28;20981;-64
2023/10/19 02:26:19;;;;;;;26.37;10.57;;;8.70;99.90;;;;;;5019644;28;20547;-63
2023/10/19 02:28:50;;;;;;;17.87;9.80;;;8.60;99.90;;;;;;5019732;28;20442;-62
2023/10/19 02:31:18;;;;;;;22.97;11.10;;;8.70;99.90;;;;;;5019526;28;20528;-63
2023/10/19 02:33:46;;;;;;;16.00;9.60;;;8.80;99.90;;;;;;5018436;28;20457;-67
2023/10/19 02:36:15;;;;;;;13.90;10.40;;;8.80;99.90;;;;;;5018844;28;20497;-64
2023/10/19 02:38:44;;;;;;;13.63;10.20;;;8.80;99.90;;;;;;5019438;28;20449;-64
2023/10/19 02:41:11;;;;;;;18.13;10.63;;;8.80;99.90;;;;;;5019269;28;20462;-62
2023/10/19 02:43:38;;;;;;;21.93;12.90;;;8.80;99.90;;;;;;5019380;28;20423;-66
2023/10/19 02:46:07;;;;;;;19.97;10.80;;;8.70;99.90;;;;;;5019290;28;20462;-62
2023/10/19 02:48:33;;;;;;;17.40;10.60;;;8.70;99.90;;;;;;5019196;28;20442;-63
2023/10/19 02:51:08;;;;;;;20.40;10.73;;;8.70;99.90;;;;;;5084369;23;20796;-67
2023/10/19 02:53:38;;;;;;;23.73;11.60;;;8.60;99.90;;;;;;5058465;28;20448;-68
2023/10/19 02:56:15;;;;;;;19.63;10.17;;;8.60;99.90;;;;;;5057292;28;20440;-56
2023/10/19 02:58:42;;;;;;;17.80;11.20;;;8.70;99.90;;;;;;5057352;28;20618;-69
2023/10/19 03:01:17;;;;;;;22.43;11.50;;;8.70;99.90;;;;;;5057258;28;20454;-70
2023/10/19 03:03:43;;;;;;;15.40;9.40;;;8.70;99.90;;;;;;5056919;28;20454;-63
2023/10/19 03:06:11;;;;;;;16.77;10.27;;;8.70;99.90;;;;;;5056770;28;20448;-67
2023/10/19 03:08:38;;;;;;;17.13;9.57;;;8.70;99.90;;;;;;5057130;28;20428;-62
2023/10/19 03:11:06;;;;;;;13.47;9.67;;;8.70;99.90;;;;;;5056575;28;20467;-66
2023/10/19 03:13:32;;;;;;;17.80;11.00;;;8.70;99.90;;;;;;5057400;28;20474;-70
2023/10/19 03:16:00;;;;;;;16.77;11.00;;;8.70;99.90;;;;;;5056557;28;20460;-66
2023/10/19 03:18:28;;;;;;;18.70;10.10;;;8.70;99.90;;;;;;5057172;28;20432;-63
2023/10/19 03:20:55;;;;;;;20.73;11.30;;;8.70;99.90;;;;;;5056900;28;20487;-61
2023/10/19 03:23:21;;;;;;;17.20;10.43;;;8.70;99.90;;;;;;5056615;28;20460;-64
2023/10/19 03:28:35;;;;;;;17.23;10.80;;;8.80;99.90;;;;;;5043714;28;20513;-60
2023/10/19 03:31:04;;;;;;;14.27;10.10;;;8.80;99.90;;;;;;5041249;28;20440;-70
2023/10/19 03:33:36;;;;;;;16.93;10.63;;;8.70;99.90;;;;;;5036801;28;20468;-71
2023/10/19 03:36:03;;;;;;;18.10;11.07;;;8.80;99.90;;;;;;5035924;28;20439;-69
2023/10/19 03:38:34;;;;;;;21.20;10.00;;;8.80;99.90;;;;;;5035454;28;20571;-69
2023/10/19 03:41:06;;;;;;;22.20;11.00;;;8.80;99.90;;;;;;5035637;28;20532;-68
2023/10/19 03:43:34;;;;;;;22.20;11.60;;;8.80;99.90;;;;;;5035542;28;20563;-69
2023/10/19 03:46:09;;;;;;;17.60;11.63;;;8.80;99.90;;;;;;5028977;28;20572;-68
2023/10/19 03:48:38;;;;;;;18.63;11.20;;;8.90;99.90;;;;;;5015942;28;20476;-71
2023/10/19 03:51:05;;;;;;;18.13;9.63;;;8.80;99.90;;;;;;5015612;28;20548;-67
2023/10/19 03:53:32;;;;;;;19.23;9.77;;;8.80;99.90;;;;;;5015578;28;20441;-69
2023/10/19 03:56:00;;;;;;;19.00;11.13;;;8.80;99.90;;;;;;5015151;28;20926;-70
2023/10/19 03:58:29;;;;;;;20.53;12.33;;;8.80;99.90;;;;;;5015161;28;20556;-69
2023/10/19 04:01:01;;;;;;;18.53;11.43;;;8.80;99.90;;;;;;5015440;28;20866;-70
2023/10/19 04:03:30;;;;;;;22.97;10.33;;;8.80;99.90;;;;;;5017817;28;20461;-71
2023/10/19 04:06:00;;;;;;;18.10;11.50;;;8.80;99.90;;;;;;5017483;28;20476;-71
2023/10/19 04:08:31;;;;;;;14.73;10.00;;;8.80;99.90;;;;;;5017625;28;20445;-68
2023/10/19 04:11:11;;;;;;;21.47;10.43;;;8.80;99.90;;;;;;5022098;28;20499;-71
2023/10/19 04:13:38;;;;;;;18.53;10.40;;;8.80;99.90;;;;;;5020894;28;20491;-70
2023/10/19 04:16:08;;;;;;;20.73;10.67;;;8.80;99.90;;;;;;5026621;28;20484;-70
2023/10/19 04:18:38;;;;;;;19.60;11.70;;;8.80;99.90;;;;;;5040309;28;20472;-70
2023/10/19 04:21:06;;;;;;;18.20;11.70;;;8.80;99.90;;;;;;5040384;28;20448;-70
2023/10/19 04:23:36;;;;;;;19.00;11.03;;;8.80;99.90;;;;;;5041199;28;20495;-67
2023/10/19 04:26:10;;;;;;;16.63;11.40;;;8.80;99.90;;;;;;5035681;28;20492;-66
2023/10/19 04:28:44;;;;;;;21.60;12.03;;;8.70;99.90;;;;;;5054553;28;20420;-48
2023/10/19 04:31:18;;;;;;;17.97;11.07;;;8.70;99.90;;;;;;5058858;28;20416;-54
2023/10/19 04:33:47;;;;;;;27.73;11.23;;;8.70;99.90;;;;;;5058667;28;20471;-54
2023/10/19 04:36:16;;;;;;;15.40;10.87;;;8.80;99.90;;;;;;5058678;28;20480;-52
2023/10/19 04:38:43;;;;;;;23.10;11.97;;;8.70;99.90;;;;;;5058631;28;20429;-52
2023/10/19 04:41:11;;;;;;;16.20;10.60;;;8.70;99.90;;;;;;5058539;28;20462;-55
2023/10/19 04:43:49;;;;;;;18.97;12.00;;;8.70;99.90;;;;;;5058606;28;20416;-50
2023/10/19 04:46:18;;;;;;;20.93;10.70;;;8.70;99.90;;;;;;5058464;28;20475;-54
2023/10/19 04:48:47;;;;;;;22.17;11.37;;;8.70;99.90;;;;;;5041030;28;20441;-53
2023/10/19 04:51:20;;;;;;;18.50;11.77;;;8.70;99.90;;;;;;5038747;28;20429;-57
2023/10/19 04:53:47;;;;;;;24.60;13.30;;;8.70;99.90;;;;;;5038591;28;20410;-51
2023/10/19 04:56:14;;;;;;;22.97;11.33;;;8.60;99.90;;;;;;5056205;28;20436;-55
2023/10/19 04:58:41;;;;;;;22.47;12.80;;;8.60;99.90;;;;;;5058380;28;20405;-50
2023/10/19 05:01:11;;;;;;;28.50;11.93;;;8.60;99.90;;;;;;5058358;28;20435;-56
2023/10/19 05:03:38;;;;;;;18.17;10.90;;;8.60;99.90;;;;;;5058137;28;20500;-54
2023/10/19 05:06:05;;;;;;;22.80;11.50;;;8.60;99.90;;;;;;5058321;28;20455;-53
2023/10/19 05:08:37;;;;;;;22.23;13.07;;;8.60;99.90;;;;;;5058255;28;20472;-54
2023/10/19 05:11:04;;;;;;;18.27;11.30;;;8.60;99.90;;;;;;5058354;28;20433;-51
2023/10/19 05:13:33;;;;;;;21.10;12.53;;;8.60;99.90;;;;;;5058262;28;20412;-52
2023/10/19 05:16:00;;;;;;;21.73;11.53;;;8.50;99.90;;;;;;5057889;28;20459;-56
2023/10/19 05:18:30;;;;;;;19.57;11.67;;;8.60;99.90;;;;;;5058204;28;20409;-52
2023/10/19 05:20:57;;;;;;;19.77;12.20;;;8.60;99.90;;;;;;5058029;28;20444;-51
2023/10/19 05:23:24;;;;;;;18.97;11.87;;;8.60;99.90;;;;;;5058211;28;20424;-51
2023/10/19 05:25:54;;;;;;;21.30;11.87;;;8.60;99.90;;;;;;5043765;28;20465;-54
2023/10/19 05:28:23;;;;;;;21.20;13.23;;;8.60;99.90;;;;;;5038283;28;20430;-50
2023/10/19 05:30:54;;;;;;;18.63;12.80;;;8.60;99.90;;;;;;5041185;28;20452;-55
2023/10/19 05:33:23;;;;;;;28.40;13.53;;;8.60;99.90;;;;;;5042200;28;20432;-52
2023/10/19 05:35:52;;;;;;;28.00;13.07;;;8.50;99.90;;;;;;5042052;28;20420;-53
2023/10/19 05:38:21;;;;;;;22.63;12.23;;;8.50;99.90;;;;;;5042007;28;20421;-48
2023/10/19 05:40:49;;;;;;;23.13;13.07;;;8.50;99.90;;;;;;5049444;28;20482;-51
2023/10/19 05:43:18;;;;;;;21.23;12.43;;;8.40;99.90;;;;;;5059331;28;20460;-53
2023/10/19 05:45:49;;;;;;;28.57;14.53;;;8.40;99.90;;;;;;5060152;28;20480;-54
2023/10/19 05:48:16;;;;;;;24.83;13.57;;;8.40;99.90;;;;;;5057275;28;20483;-51
2023/10/19 05:50:49;;;;;;;22.10;13.70;;;8.40;99.90;;;;;;5061849;28;20479;-54
2023/10/19 05:53:18;;;;;;;22.40;13.03;;;8.30;99.90;;;;;;5059500;28;20462;-50
2023/10/19 05:55:45;;;;;;;30.07;12.37;;;8.40;99.90;;;;;;5061661;28;20436;-54
2023/10/19 05:58:14;;;;;;;21.90;12.30;;;8.30;99.90;;;;;;5061689;28;20432;-53
2023/10/19 06:00:42;;;;;;;21.07;13.80;;;8.30;99.90;;;;;;5061724;28;20424;-53
2023/10/19 06:03:14;;;;;;;22.63;13.40;;;8.30;99.90;;;;;;5061492;28;20435;-50
2023/10/19 06:05:41;;;;;;;23.70;14.50;;;8.30;99.90;;;;;;5061495;28;20452;-52
2023/10/19 06:08:08;;;;;;;22.33;12.90;;;8.30;99.90;;;;;;5061403;28;20467;-49
2023/10/19 06:10:39;;;;;;;25.67;13.47;;;8.30;99.90;;;;;;5057900;28;20440;-70
2023/10/19 06:13:09;;;;;;;27.70;13.93;;;8.30;99.90;;;;;;5058015;28;20456;-70
2023/10/19 06:15:39;;;;;;;22.57;13.70;;;8.20;99.90;;;;;;5058813;28;20435;-67
2023/10/19 06:18:07;;;;;;;25.03;13.73;;;8.20;99.90;;;;;;5058478;28;20482;-68
2023/10/19 06:20:35;;;;;;;21.93;14.27;;;8.30;99.90;;;;;;5058048;28;20447;-64
2023/10/19 06:23:05;;;;;;;23.13;13.53;;;8.30;99.90;;;;;;5051227;28;20516;-70
2023/10/19 06:25:34;;;;;;;20.83;12.63;;;8.20;99.90;;;;;;5048769;28;20640;-64
2023/10/19 06:28:01;;;;;;;20.47;13.20;;;8.20;99.90;;;;;;5039034;28;20452;-64
2023/10/19 06:30:31;;;;;;;22.50;12.53;;;8.20;99.90;;;;;;5046767;28;20468;-71
2023/10/19 06:33:00;;;;;;;21.43;14.07;;;8.20;99.90;;;;;;5044557;28;20531;-70
2023/10/19 06:35:31;;;;;;;24.17;13.70;;;8.10;99.90;;;;;;5043825;28;20885;-71
2023/10/19 06:37:59;;;;;;;31.97;14.97;;;8.10;99.90;;;;;;5044871;28;20499;-69
2023/10/19 06:40:26;;;;;;;20.63;13.50;;;8.10;99.90;;;;;;5043348;28;21044;-72
2023/10/19 06:42:56;;;;;;;21.13;12.73;;;8.10;99.90;;;;;;5034661;28;20471;-67
2023/10/19 06:45:25;;;;;;;21.37;13.03;;;8.10;99.90;;;;;;5024216;28;20475;-66
2023/10/19 06:47:52;;;;;;;22.67;13.20;;;8.10;99.90;;;;;;5024404;28;20547;-72
2023/10/19 06:50:21;;;;;;;24.60;15.50;;;8.10;99.90;;;;;;5024402;28;20500;-70
2023/10/19 06:52:51;;;;;;;19.50;12.83;;;8.10;99.90;;;;;;5038249;28;20475;-69
2023/10/19 06:55:22;;;;;;;24.90;12.40;;;8.10;99.90;;;;;;5044395;28;20522;-71
2023/10/19 06:57:51;;;;;;;23.37;14.37;;;8.10;99.90;;;;;;5044778;28;20516;-70
2023/10/19 07:00:20;;;;;;;23.80;13.77;;;8.10;99.90;;;;;;5048097;28;20494;-65
2023/10/19 07:02:48;;;;;;;21.83;13.63;;;8.10;99.90;;;;;;5064195;28;20845;-70
2023/10/19 07:05:18;;;;;;;28.33;15.90;;;8.10;99.90;;;;;;5063382;28;20448;-69
2023/10/19 07:07:46;;;;;;;21.10;13.20;;;8.10;99.90;;;;;;5063710;28;20585;-71
2023/10/19 07:10:14;;;;;;;24.93;13.13;;;8.10;99.90;;;;;;5063359;28;20451;-72
2023/10/19 07:12:43;;;;;;;23.17;14.57;;;8.20;99.90;;;;;;5063216;28;20510;-70
2023/10/19 07:15:13;;;;;;;21.60;12.90;;;8.20;99.90;;;;;;5064234;28;20428;-69
2023/10/19 07:17:41;;;;;;;29.20;14.70;;;8.20;99.90;;;;;;5064418;28;20503;-68
2023/10/19 07:20:20;;;;;;;23.43;13.90;;;8.20;99.90;;;;;;5072850;28;20470;-65
2023/10/19 07:22:48;;;;;;;20.77;12.87;;;8.20;99.90;;;;;;5078643;28;20438;-65
2023/10/19 07:25:21;;;;;;;25.30;12.23;;;8.20;99.90;;;;;;5068261;28;20479;-67
2023/10/19 07:27:50;;;;;;;24.03;12.90;;;8.20;99.90;;;;;;5057466;28;20513;-55
2023/10/19 07:30:21;;;;;;;30.07;13.60;;;8.20;99.90;;;;;;5059143;28;20480;-63
2023/10/19 07:32:51;;;;;;;28.53;16.10;;;8.30;99.90;;;;;;5059187;28;20436;-64
2023/10/19 07:35:21;;;;;;;21.00;12.33;;;8.40;99.90;;;;;;5058919;28;20487;-57
2023/10/19 07:37:50;;;;;;;21.83;12.90;;;8.40;99.90;;;;;;5058725;28;20428;-57
2023/10/19 07:40:18;;;;;;;19.67;12.83;;;8.50;99.90;;;;;;5059269;28;20493;-60
2023/10/19 07:42:46;;;;;;;27.80;14.93;;;8.50;99.90;;;;;;5058761;28;20459;-61
2023/10/19 07:45:13;;;;;;;23.57;13.57;;;8.60;99.90;;;;;;5058866;28;20528;-64
2023/10/19 07:47:41;;;;;;;20.43;13.83;;;8.60;99.90;;;;;;5058917;28;20503;-57
2023/10/19 07:50:12;;;;;;;21.90;12.63;;;8.60;99.90;;;;;;5058948;28;20467;-57
2023/10/19 07:52:39;;;;;;;20.00;12.50;;;8.60;99.90;;;;;;5057991;28;20519;-63
2023/10/19 07:55:09;;;;;;;25.40;13.20;;;8.70;99.90;;;;;;5058579;28;20444;-58
2023/10/19 07:57:40;;;;;;;23.70;13.20;;;8.80;99.90;;;;;;5058486;28;20451;-52
2023/10/19 08:00:09;;;;;;;23.00;13.50;;;8.80;99.90;;;;;;5058516;28;20444;-66
2023/10/19 08:02:37;;;;;;;20.07;13.83;;;8.80;99.90;;;;;;5058566;28;20496;-64
2023/10/19 08:05:07;;;;;;;24.70;13.27;;;8.90;99.90;;;;;;5058362;28;20491;-59
2023/10/19 08:07:36;;;;;;;21.37;13.07;;;9.00;99.90;;;;;;5058215;28;20495;-62
2023/10/19 08:10:09;;;;;;;24.20;12.13;;;9.00;99.90;;;;;;5058052;28;20456;-57
2023/10/19 08:12:38;;;;;;;26.07;13.30;;;9.00;99.90;;;;;;5057908;28;20435;-61
2023/10/19 08:15:11;;;;;;;19.70;12.30;;;9.00;99.90;;;;;;5057840;28;20448;-60
2023/10/19 08:17:39;;;;;;;21.33;12.50;;;9.00;99.90;;;;;;5058041;28;20500;-62
2023/10/19 08:20:09;;;;;;;23.93;13.40;;;9.10;99.90;;;;;;5057540;28;20428;-62
2023/10/19 08:22:37;;;;;;;25.53;12.80;;;9.10;99.90;;;;;;5057837;28;20447;-59
2023/10/19 08:25:11;;;;;;;24.77;13.80;;;9.00;99.90;;;;;;5057818;28;20444;-59
2023/10/19 08:27:44;;;;;;;17.97;11.77;;;9.10;99.90;;;;;;5057204;28;20551;-57
2023/10/19 08:30:12;;;;;;;20.67;11.60;;;9.00;99.90;;;;;;5057807;28;20480;-65
2023/10/19 08:32:39;;;;;;;23.27;12.40;;;9.00;99.90;;;;;;5057748;28;20503;-63
2023/10/19 08:35:07;;;;;;;25.77;14.60;;;9.10;99.90;;;;;;5057687;28;20509;-57
2023/10/19 08:37:36;;;;;;;21.33;14.13;;;9.20;99.90;;;;;;5057421;28;20464;-56
2023/10/19 08:40:07;;;;;;;24.27;12.13;;;9.10;99.90;;;;;;5057926;28;20440;-55
2023/10/19 08:42:34;;;;;;;21.80;12.23;;;9.10;99.90;;;;;;5057535;28;20451;-70
2023/10/19 08:45:03;;;;;;;18.83;12.80;;;9.20;99.90;;;;;;5057720;28;20444;-60
2023/10/19 08:47:30;;;;;;;23.20;12.40;;;9.20;99.90;;;;;;5057820;28;20459;-55
2023/10/19 08:50:05;;;;;;;16.30;10.90;;;9.20;99.90;;;;;;5057402;28;20478;-67
2023/10/19 08:52:37;;;;;;;21.83;13.43;;;9.40;99.90;;;;;;5057770;28;20454;-60
2023/10/19 08:55:05;;;;;;;16.43;11.37;;;9.40;99.90;;;;;;5057437;28;20472;-61
2023/10/19 08:57:32;;;;;;;29.07;15.80;;;9.40;99.90;;;;;;5057699;28;20452;-58
2023/10/19 09:00:06;;;;;;;27.67;13.57;;;9.50;99.90;;;;;;5056417;28;20479;-58
2023/10/19 09:02:34;;;;;;;17.87;12.50;;;9.60;99.90;;;;;;5057658;28;20421;-62
2023/10/19 09:05:07;;;;;;;23.63;12.73;;;9.50;99.90;;;;;;5061074;28;20507;-63
2023/10/19 09:07:35;;;;;;;21.63;12.43;;;9.60;99.90;;;;;;5061105;28;20547;-59
2023/10/19 09:10:05;;;;;;;19.17;10.57;;;9.60;99.90;;;;;;5061026;28;20448;-64
2023/10/19 09:12:33;;;;;;;21.80;12.57;;;9.60;99.90;;;;;;5061044;28;20502;-65
2023/10/19 09:15:04;;;;;;;20.53;13.20;;;9.60;99.90;;;;;;5061327;28;20436;-59
2023/10/19 09:17:31;;;;;;;25.20;13.17;;;9.60;99.90;;;;;;5060965;28;20507;-52
2023/10/19 09:20:09;;;;;;;20.43;13.00;;;9.70;99.90;;;;;;5061408;28;20507;-52
2023/10/19 09:22:44;;;;;;;24.90;12.30;;;9.70;99.90;;;;;;5060910;28;20521;-64
2023/10/19 09:25:11;;;;;;;21.63;12.50;;;9.70;99.90;;;;;;5061059;28;20454;-63
2023/10/19 09:27:38;;;;;;;24.50;12.67;;;9.70;99.90;;;;;;5060881;28;20474;-60
2023/10/19 09:30:08;;;;;;;20.63;13.33;;;9.70;99.90;;;;;;5060980;28;20448;-55
2023/10/19 09:32:36;;;;;;;26.03;12.77;;;9.70;99.90;;;;;;5061425;28;20448;-59
2023/10/19 09:35:05;;;;;;;16.43;12.50;;;9.70;99.90;;;;;;5061142;28;20488;-66
2023/10/19 09:37:32;;;;;;;24.57;11.80;;;9.70;99.90;;;;;;5061186;28;20436;-59
2023/10/19 09:40:00;;;;;;;24.33;12.57;;;9.80;99.90;;;;;;5060823;28;20464;-62
2023/10/19 09:42:31;;;;;;;21.50;12.50;;;9.80;99.90;;;;;;5061187;28;20468;-54
2023/10/19 09:45:05;;;;;;;19.50;13.47;;;9.90;99.90;;;;;;5060750;28;20417;-63
2023/10/19 09:47:37;;;;;;;24.23;12.90;;;9.90;99.90;;;;;;5060829;28;20483;-62
2023/10/19 09:50:06;;;;;;;23.00;13.47;;;9.90;99.90;;;;;;5060975;28;20440;-67
2023/10/19 09:52:34;;;;;;;21.37;13.67;;;10.00;99.90;;;;;;5060554;28;20443;-69
2023/10/19 09:55:10;;;;;;;22.13;12.33;;;10.00;99.90;;;;;;5060865;28;20431;-55
2023/10/19 09:57:44;;;;;;;21.53;11.30;;;10.00;99.90;;;;;;5060412;28;20476;-65
2023/10/19 10:00:12;;;;;;;20.87;12.00;;;9.90;99.90;;;;;;5060602;28;20411;-55
2023/10/19 10:02:42;;;;;;;20.40;12.57;;;9.90;99.90;;;;;;5060741;28;20490;-61
2023/10/19 10:05:42;;;;;;;19.10;13.33;;;9.90;99.90;;;;;;5053243;28;20453;-57
2023/10/19 10:08:33;;;;;;;21.03;12.30;;;9.90;99.90;;;;;;5035706;28;20500;-70
2023/10/19 10:11:21;;;;;;;17.87;11.33;;;9.90;99.90;;;;;;5037494;28;20543;-72
2023/10/19 10:13:51;;;;;;;22.47;13.03;;;9.90;99.90;;;;;;5046455;28;20468;-73
2023/10/19 10:16:19;;;;;;;23.20;14.60;;;9.90;99.90;;;;;;5035561;28;20466;-70
2023/10/19 10:18:50;;;;;;;26.67;13.50;;;9.90;99.90;;;;;;5037148;28;20527;-70
2023/10/19 10:21:18;;;;;;;24.97;12.80;;;9.90;99.90;;;;;;5036844;28;20994;-72
2023/10/19 10:23:48;;;;;;;21.50;13.53;;;10.00;99.90;;;;;;5037014;28;20456;-71
2023/10/19 10:26:17;;;;;;;20.73;12.73;;;9.90;99.90;;;;;;5036996;28;20432;-73
2023/10/19 10:28:48;;;;;;;18.73;13.27;;;10.00;99.90;;;;;;5036763;28;20518;-73
2023/10/19 10:31:20;;;;;;;23.47;13.20;;;10.00;99.90;;;;;;5036949;28;20468;-71
2023/10/19 10:33:49;;;;;;;24.93;13.13;;;9.90;99.90;;;;;;5036943;28;20443;-73
2023/10/19 10:36:17;;;;;;;18.10;12.40;;;9.90;99.90;;;;;;5036710;28;20479;-71
2023/10/19 10:38:47;;;;;;;21.00;12.07;;;9.80;99.90;;;;;;5036420;28;20470;-70
2023/10/19 10:41:20;;;;;;;23.60;16.00;;;9.80;99.90;;;;;;5036845;28;20440;-69
2023/10/19 10:43:52;;;;;;;22.57;14.80;;;9.80;99.90;;;;;;5041095;28;20447;-72
2023/10/19 10:46:19;;;;;;;25.03;14.00;;;9.80;99.90;;;;;;5039383;28;20472;-73
2023/10/19 10:48:48;;;;;;;20.83;13.53;;;9.80;99.90;;;;;;5036664;28;20475;-73
2023/10/19 10:51:19;;;;;;;20.70;13.00;;;9.80;99.90;;;;;;5036356;28;20462;-70
2023/10/19 10:53:53;;;;;;;21.33;13.90;;;9.80;99.90;;;;;;5036317;28;20495;-70
2023/10/19 10:56:21;;;;;;;23.10;13.30;;;9.80;99.90;;;;;;5036289;28;20519;-69
2023/10/19 10:58:49;;;;;;;22.17;12.60;;;9.80;99.90;;;;;;5046997;28;20496;-64
2023/10/19 11:01:17;;;;;;;21.30;13.43;;;9.80;99.90;;;;;;5059506;28;20428;-62
2023/10/19 11:03:44;;;;;;;18.43;12.23;;;9.80;99.90;;;;;;5059387;28;21103;-58
2023/10/19 11:06:12;;;;;;;19.13;12.30;;;9.80;99.90;;;;;;5059599;28;20417;-59
2023/10/19 11:08:39;;;;;;;23.50;12.90;;;9.80;99.90;;;;;;5073397;28;20471;-60
2023/10/19 11:11:10;;;;;;;22.80;13.33;;;9.80;99.90;;;;;;5059732;28;20448;-50
2023/10/19 11:13:40;;;;;;;18.37;14.00;;;9.80;99.90;;;;;;5059556;28;20455;-59
2023/10/19 11:16:10;;;;;;;23.83;12.43;;;9.70;99.90;;;;;;5059406;28;20476;-52
2023/10/19 11:18:39;;;;;;;15.93;11.27;;;9.70;99.90;;;;;;5058993;28;20439;-56
2023/10/19 11:21:11;;;;;;;20.13;13.37;;;9.60;99.90;;;;;;5059238;28;20525;-59
2023/10/19 11:23:42;;;;;;;20.73;12.67;;;9.50;99.90;;;;;;5059339;28;20425;-55
2023/10/19 11:26:11;;;;;;;18.47;12.77;;;9.50;99.90;;;;;;5059358;28;20416;-57
2023/10/19 11:28:50;;;;;;;23.67;13.47;;;9.50;99.90;;;;;;5059086;28;20488;-57
2023/10/19 11:31:19;;;;;;;21.13;12.33;;;9.40;99.90;;;;;;5059317;28;20495;-56
2023/10/19 11:33:48;;;;;;;28.47;13.57;;;9.30;99.90;;;;;;5059010;28;20447;-54
2023/10/19 11:36:18;;;;;;;22.07;14.10;;;9.30;99.90;;;;;;5073767;28;20455;-58
2023/10/19 11:38:46;;;;;;;21.80;13.43;;;9.30;99.90;;;;;;5073713;28;20467;-66
2023/10/19 11:41:16;;;;;;;21.63;15.77;;;9.20;99.90;;;;;;5059050;28;20432;-65
2023/10/19 11:43:44;;;;;;;23.63;14.43;;;9.20;99.90;;;;;;5058996;28;20469;-51
2023/10/19 11:46:12;;;;;;;22.90;14.00;;;9.20;99.90;;;;;;5058812;28;20408;-54
2023/10/19 11:48:42;;;;;;;21.30;13.70;;;9.20;99.90;;;;;;5058918;28;20474;-55
2023/10/19 11:51:10;;;;;;;26.77;16.17;;;9.30;99.90;;;;;;5058700;28;20470;-62
2023/10/19 11:53:39;;;;;;;22.00;15.17;;;9.20;99.90;;;;;;5059058;28;20421;-53
2023/10/19 11:56:09;;;;;;;25.00;16.13;;;9.20;99.90;;;;;;5058594;28;20499;-58
2023/10/19 11:58:39;;;;;;;25.63;14.50;;;9.20;99.90;;;;;;5058870;28;20424;-53
2023/10/19 12:01:08;;;;;;;22.37;14.77;;;9.10;99.90;;;;;;5058274;28;20460;-70
2023/10/19 12:03:36;;;;;;;23.37;13.70;;;9.10;99.90;;;;;;5058805;28;20476;-58
2023/10/19 12:06:06;;;;;;;20.20;14.90;;;9.10;99.90;;;;;;5058797;28;20448;-61
2023/10/19 12:08:33;;;;;;;29.17;15.00;;;9.10;99.90;;;;;;5076524;28;20482;-61
2023/10/19 12:11:03;;;;;;;28.60;15.40;;;9.10;99.90;;;;;;5078235;28;20431;-67
2023/10/19 12:13:37;;;;;;;27.70;16.27;;;9.10;99.90;;;;;;5078505;28;20506;-57
2023/10/19 12:16:05;;;;;;;26.90;15.80;;;9.10;99.90;;;;;;5077799;28;20419;-61
2023/10/19 12:18:32;;;;;;;28.30;16.20;;;9.10;99.90;;;;;;5077511;28;20470;-60
2023/10/19 12:20:59;;;;;;;27.03;16.60;;;9.10;99.90;;;;;;5077754;28;20431;-59
2023/10/19 12:23:26;;;;;;;24.20;16.10;;;9.10;99.90;;;;;;5077191;28;20486;-57
2023/10/19 12:25:53;;;;;;;22.10;16.10;;;9.20;99.90;;;;;;5065637;28;20464;-57
2023/10/19 12:28:24;;;;;;;30.10;15.87;;;9.20;99.90;;;;;;5038024;28;20481;-53
2023/10/19 12:30:52;;;;;;;28.10;15.50;;;9.20;99.90;;;;;;5038209;28;20425;-61
2023/10/19 12:33:19;;;;;;;24.60;14.40;;;9.30;99.90;;;;;;5038100;28;20449;-54
2023/10/19 12:35:49;;;;;;;26.53;15.97;;;9.30;99.90;;;;;;5037870;28;20483;-51
2023/10/19 12:38:19;;;;;;;26.73;15.03;;;9.30;99.90;;;;;;5037970;28;20437;-63
2023/10/19 12:40:48;;;;;;;27.23;16.20;;;9.30;99.90;;;;;;5037810;28;20461;-64
2023/10/19 12:43:18;;;;;;;34.37;18.20;;;9.30;99.90;;;;;;5038250;28;20452;-57
2023/10/19 12:45:50;;;;;;;23.70;15.43;;;9.30;99.90;;;;;;5038186;28;20460;-71
2023/10/19 12:48:33;;;;;;;24.10;14.53;;;9.30;99.90;;;;;;5037929;28;20460;-72
2023/10/19 12:51:01;;;;;;;23.13;15.40;;;9.30;99.90;;;;;;5037988;28;20449;-54
2023/10/19 12:53:30;;;;;;;24.60;16.17;;;9.40;99.90;;;;;;5038122;28;20472;-71